createdAt,value
2018-06-27T00:01:17.143Z,90.20
2018-06-27T00:03:46.090Z,90.20
2018-06-27T00:06:14.693Z,90.50
2018-06-27T00:08:43.937Z,90.30
2018-06-27T00:13:40.904Z,90.50
2018-06-27T00:16:09.527Z,90.40
2018-06-27T00:18:38.641Z,90.50
2018-06-27T00:21:07.849Z,90.50
2018-06-27T00:23:36.585Z,90.50
2018-06-27T00:26:05.301Z,90.50
2018-06-27T00:28:33.918Z,90.70
2018-06-27T00:31:02.561Z,90.50
2018-06-27T00:33:31.145Z,90.50
2018-06-27T00:35:59.750Z,90.50
2018-06-27T00:38:28.391Z,90.50
2018-06-27T00:40:57.016Z,90.50
2018-06-27T00:43:25.693Z,90.50
2018-06-27T00:45:54.303Z,90.50
2018-06-27T00:48:22.934Z,90.50
2018-06-27T00:50:51.516Z,90.50
2018-06-27T00:53:20.185Z,90.50
2018-06-27T00:55:48.785Z,90.50
2018-06-27T00:58:17.400Z,90.50
2018-06-27T01:00:45.979Z,90.50
2018-06-27T01:03:14.593Z,90.50
2018-06-27T01:05:43.462Z,90.50
2018-06-27T01:08:12.132Z,91.00
2018-06-27T01:10:40.861Z,90.60
2018-06-27T01:13:09.436Z,90.60
2018-06-27T01:15:38.059Z,90.60
2018-06-27T01:18:06.689Z,90.60
2018-06-27T01:20:35.285Z,90.70
2018-06-27T01:23:03.874Z,90.70
2018-06-27T01:25:32.587Z,90.70
2018-06-27T01:28:01.365Z,90.80
2018-06-27T01:30:29.981Z,90.80
2018-06-27T01:32:58.596Z,90.80
2018-06-27T01:35:27.221Z,90.90
2018-06-27T01:37:55.808Z,90.80
2018-06-27T01:40:24.788Z,90.80
2018-06-27T01:42:53.416Z,90.90
2018-06-27T01:45:22.013Z,90.90
2018-06-27T01:47:51.489Z,90.90
2018-06-27T01:50:20.168Z,90.90
2018-06-27T01:52:48.925Z,90.90
2018-06-27T01:55:17.529Z,90.90
2018-06-27T01:57:46.169Z,90.90
2018-06-27T02:00:14.806Z,91.00
2018-06-27T02:02:43.582Z,90.90
2018-06-27T02:05:12.262Z,91.00
2018-06-27T02:07:42.043Z,91.00
2018-06-27T02:10:12.462Z,91.00
2018-06-27T02:12:41.097Z,91.00
2018-06-27T02:15:09.736Z,91.00
2018-06-27T02:17:39.042Z,91.00
2018-06-27T02:20:08.136Z,91.10
2018-06-27T02:22:36.823Z,91.10
2018-06-27T02:25:05.513Z,91.10
2018-06-27T02:27:34.201Z,91.10
2018-06-27T02:32:31.131Z,91.50
2018-06-27T02:34:59.716Z,91.30
2018-06-27T02:37:28.318Z,91.40
2018-06-27T02:39:56.974Z,91.30
2018-06-27T02:42:25.647Z,91.10
2018-06-27T02:44:54.253Z,91.10
2018-06-27T02:47:24.364Z,91.10
2018-06-27T02:49:53.290Z,91.20
2018-06-27T02:52:21.856Z,91.20
2018-06-27T02:54:50.494Z,91.20
2018-06-27T02:57:19.174Z,91.20
2018-06-27T02:59:47.839Z,91.20
2018-06-27T03:02:17.999Z,91.20
2018-06-27T03:04:47.757Z,91.20
2018-06-27T03:07:16.397Z,91.30
2018-06-27T03:09:45.027Z,91.30
2018-06-27T03:12:13.633Z,91.40
2018-06-27T03:14:42.774Z,91.30
2018-06-27T03:17:11.398Z,91.30
2018-06-27T03:19:40.471Z,91.40
2018-06-27T03:22:09.166Z,91.40
2018-06-27T03:24:37.790Z,91.40
2018-06-27T03:27:06.392Z,91.40
2018-06-27T03:29:35.814Z,91.40
2018-06-27T03:32:04.419Z,91.30
2018-06-27T03:34:33.037Z,91.30
2018-06-27T03:37:01.766Z,91.30
2018-06-27T03:39:30.438Z,91.40
2018-06-27T03:41:59.060Z,91.50
2018-06-27T03:44:27.712Z,91.70
2018-06-27T03:46:56.322Z,91.70
2018-06-27T03:49:25.519Z,91.80
2018-06-27T03:51:54.869Z,92.00
2018-06-27T03:54:23.468Z,92.00
2018-06-27T03:56:52.843Z,91.90
2018-06-27T03:59:21.451Z,92.00
2018-06-27T04:01:50.097Z,92.00
2018-06-27T04:04:18.734Z,92.00
2018-06-27T04:06:48.052Z,92.20
2018-06-27T04:09:16.655Z,92.40
2018-06-27T04:11:45.286Z,92.10
2018-06-27T04:14:13.899Z,92.30
2018-06-27T04:16:42.502Z,92.20
2018-06-27T04:19:11.146Z,92.30
2018-06-27T04:21:40.573Z,92.40
2018-06-27T04:24:09.947Z,92.20
2018-06-27T04:26:38.618Z,92.70
2018-06-27T04:29:07.510Z,92.90
2018-06-27T04:31:36.800Z,93.10
2018-06-27T04:34:05.443Z,93.10
2018-06-27T04:36:34.662Z,93.40
2018-06-27T04:39:03.981Z,93.50
2018-06-27T04:41:32.596Z,93.50
2018-06-27T04:44:01.840Z,93.60
2018-06-27T04:46:31.035Z,93.70
2018-06-27T04:48:59.637Z,93.80
2018-06-27T04:51:28.254Z,94.30
2018-06-27T04:53:57.168Z,94.00
2018-06-27T04:56:26.091Z,94.10
2018-06-27T04:58:54.677Z,94.10
2018-06-27T05:01:23.761Z,94.00
2018-06-27T05:03:52.407Z,94.30
2018-06-27T05:06:21.039Z,94.50
2018-06-27T05:08:49.660Z,94.70
2018-06-27T05:11:18.821Z,94.60
2018-06-27T05:13:47.582Z,95.00
2018-06-27T05:16:16.309Z,94.40
2018-06-27T05:18:45.324Z,94.40
2018-06-27T05:21:13.951Z,94.50
2018-06-27T05:23:42.566Z,94.60
2018-06-27T05:26:11.174Z,94.70
2018-06-27T05:28:39.782Z,94.70
2018-06-27T05:31:08.364Z,94.90
2018-06-27T05:33:37.495Z,94.90
2018-06-27T05:36:06.127Z,94.80
2018-06-27T05:38:34.710Z,94.80
2018-06-27T05:41:03.347Z,94.90
2018-06-27T05:43:31.977Z,95.00
2018-06-27T05:46:00.777Z,95.20
2018-06-27T05:48:29.408Z,95.20
2018-06-27T05:50:58.004Z,95.10
2018-06-27T05:53:26.606Z,95.40
2018-06-27T05:55:55.228Z,95.00
2018-06-27T05:58:24.452Z,94.80
2018-06-27T06:00:53.697Z,94.80
2018-06-27T06:03:22.410Z,94.80
2018-06-27T06:05:51.249Z,94.90
2018-06-27T06:08:19.870Z,94.80
2018-06-27T06:10:49.117Z,94.60
2018-06-27T06:13:18.013Z,94.60
2018-06-27T06:15:46.619Z,94.70
2018-06-27T06:18:15.227Z,94.70
2018-06-27T06:20:43.820Z,94.50
2018-06-27T06:23:12.434Z,94.50
2018-06-27T06:25:41.244Z,94.40
2018-06-27T06:28:09.869Z,95.00
2018-06-27T06:30:38.497Z,94.40
2018-06-27T06:33:07.141Z,94.30
2018-06-27T06:35:35.745Z,94.10
2018-06-27T06:38:04.659Z,94.00
2018-06-27T06:40:33.246Z,93.80
2018-06-27T06:43:01.837Z,94.00
2018-06-27T06:45:31.036Z,93.90
2018-06-27T06:47:59.641Z,93.70
2018-06-27T06:50:28.889Z,93.50
2018-06-27T06:52:58.239Z,93.20
2018-06-27T06:55:26.885Z,92.90
2018-06-27T06:57:56.142Z,93.20
2018-06-27T07:00:24.774Z,93.00
2018-06-27T07:02:53.430Z,92.80
2018-06-27T07:05:22.039Z,92.70
2018-06-27T07:07:50.629Z,92.30
2018-06-27T07:10:19.377Z,92.20
2018-06-27T07:12:48.020Z,92.10
2018-06-27T07:15:16.642Z,91.80
2018-06-27T07:20:14.450Z,91.30
2018-06-27T07:22:43.067Z,91.20
2018-06-27T07:25:11.760Z,91.30
2018-06-27T07:27:40.342Z,90.90
2018-06-27T07:30:08.993Z,90.90
2018-06-27T07:35:05.913Z,90.90
2018-06-27T07:37:35.188Z,90.60
2018-06-27T07:40:03.872Z,90.60
2018-06-27T07:42:32.465Z,90.40
2018-06-27T07:45:01.062Z,90.20
2018-06-27T07:47:29.641Z,90.90
2018-06-27T07:49:58.903Z,90.60
2018-06-27T07:52:27.475Z,89.60
2018-06-27T07:54:56.359Z,89.40
2018-06-27T07:57:24.980Z,89.50
2018-06-27T07:59:53.797Z,88.10
2018-06-27T08:02:22.782Z,87.70
2018-06-27T08:04:51.414Z,87.50
2018-06-27T08:07:20.474Z,89.80
2018-06-27T08:09:49.074Z,88.30
2018-06-27T08:12:18.648Z,87.40
2018-06-27T08:14:47.199Z,87.00
2018-06-27T08:17:15.790Z,86.00
2018-06-27T08:19:44.438Z,85.50
2018-06-27T08:22:13.025Z,86.10
2018-06-27T08:24:41.841Z,84.70
2018-06-27T08:27:10.512Z,84.60
2018-06-27T08:29:39.176Z,85.40
2018-06-27T08:32:07.800Z,82.80
2018-06-27T08:34:36.431Z,82.70
2018-06-27T08:37:05.237Z,83.30
2018-06-27T08:39:33.952Z,81.50
2018-06-27T08:42:02.569Z,82.50
2018-06-27T08:44:31.264Z,81.30
2018-06-27T08:46:59.911Z,80.90
2018-06-27T08:49:29.173Z,78.60
2018-06-27T08:51:57.795Z,79.20
2018-06-27T08:54:26.992Z,78.50
2018-06-27T08:56:56.811Z,77.10
2018-06-27T08:59:25.408Z,78.20
2018-06-27T09:01:54.032Z,80.10
2018-06-27T09:04:22.641Z,79.00
2018-06-27T09:06:51.326Z,77.30
2018-06-27T09:09:20.032Z,77.00
2018-06-27T09:11:48.628Z,76.20
2018-06-27T09:14:17.245Z,74.10
2018-06-27T09:16:45.842Z,77.60
2018-06-27T09:19:14.554Z,76.50
2018-06-27T09:21:43.202Z,73.80
2018-06-27T09:24:12.472Z,74.30
2018-06-27T09:26:41.070Z,73.70
2018-06-27T09:29:09.672Z,73.50
2018-06-27T09:31:38.272Z,73.80
2018-06-27T09:34:06.918Z,72.80
2018-06-27T09:36:35.580Z,72.40
2018-06-27T09:39:07.066Z,72.20
2018-06-27T09:41:35.679Z,70.00
2018-06-27T09:44:05.056Z,69.10
2018-06-27T09:46:33.945Z,67.60
2018-06-27T09:49:02.642Z,67.60
2018-06-27T09:51:31.239Z,67.90
2018-06-27T09:54:00.581Z,65.60
2018-06-27T09:56:29.239Z,66.40
2018-06-27T09:58:57.883Z,66.70
2018-06-27T10:01:28.479Z,64.80
2018-06-27T10:06:25.410Z,61.90
2018-06-27T10:08:54.086Z,61.60
2018-06-27T10:11:23.016Z,61.90
2018-06-27T10:13:51.690Z,61.70
2018-06-27T10:16:20.271Z,60.40
2018-06-27T10:18:48.981Z,63.10
2018-06-27T10:21:17.593Z,60.40
2018-06-27T10:23:46.253Z,58.60
2018-06-27T10:26:15.427Z,58.70
2018-06-27T10:28:44.030Z,56.40
2018-06-27T10:31:12.673Z,56.80
2018-06-27T10:33:41.385Z,56.50
2018-06-27T10:36:10.008Z,56.40
2018-06-27T10:38:38.590Z,57.30
2018-06-27T10:41:07.248Z,55.40
2018-06-27T10:43:35.860Z,54.20
2018-06-27T10:46:04.624Z,55.30
2018-06-27T10:48:33.208Z,55.50
2018-06-27T10:51:01.874Z,54.30
2018-06-27T10:53:30.494Z,52.40
2018-06-27T10:55:59.890Z,53.00
2018-06-27T10:58:28.502Z,52.50
2018-06-27T11:00:58.867Z,51.30
2018-06-27T11:03:27.486Z,52.20
2018-06-27T11:05:56.709Z,52.00
2018-06-27T11:08:25.317Z,50.80
2018-06-27T11:10:54.016Z,50.80
2018-06-27T11:13:22.675Z,52.70
2018-06-27T11:15:51.377Z,51.60
2018-06-27T11:18:20.014Z,51.60
2018-06-27T11:20:49.181Z,50.60
2018-06-27T11:23:17.770Z,52.40
2018-06-27T11:25:46.414Z,51.60
2018-06-27T11:28:15.103Z,50.70
2018-06-27T11:30:43.748Z,52.30
2018-06-27T11:33:12.370Z,50.90
2018-06-27T11:35:40.981Z,50.60
2018-06-27T11:38:09.610Z,46.80
2018-06-27T11:40:38.552Z,50.30
2018-06-27T11:43:07.239Z,47.60
2018-06-27T11:45:35.831Z,47.10
2018-06-27T11:48:04.940Z,46.30
2018-06-27T11:50:33.565Z,47.00
2018-06-27T11:53:02.202Z,50.60
2018-06-27T11:55:30.878Z,50.30
2018-06-27T11:57:59.745Z,48.20
2018-06-27T12:00:28.405Z,48.00
2018-06-27T12:02:57.945Z,46.50
2018-06-27T12:05:26.531Z,48.10
2018-06-27T12:07:55.137Z,47.00
2018-06-27T12:10:23.722Z,46.60
2018-06-27T12:12:52.431Z,45.90
2018-06-27T12:15:21.026Z,45.30
2018-06-27T12:17:49.637Z,47.80
2018-06-27T12:20:18.224Z,43.90
2018-06-27T12:22:47.069Z,46.70
2018-06-27T12:25:15.718Z,46.50
2018-06-27T12:27:45.617Z,45.40
2018-06-27T12:30:19.766Z,44.40
2018-06-27T12:32:50.244Z,46.00
2018-06-27T12:35:19.925Z,46.50
2018-06-27T12:37:49.498Z,44.70
2018-06-27T12:40:18.217Z,45.10
2018-06-27T12:42:47.641Z,45.50
2018-06-27T12:45:16.300Z,45.80
2018-06-27T12:47:44.951Z,46.90
2018-06-27T12:50:17.809Z,46.00
2018-06-27T12:52:46.653Z,46.00
2018-06-27T12:55:15.240Z,46.60
2018-06-27T12:57:43.845Z,44.70
2018-06-27T13:00:13.134Z,45.00
2018-06-27T13:02:41.740Z,45.50
2018-06-27T13:05:10.826Z,43.10
2018-06-27T13:07:39.431Z,43.30
2018-06-27T13:10:08.932Z,43.20
2018-06-27T13:12:37.936Z,42.50
2018-06-27T13:15:07.319Z,42.70
2018-06-27T13:17:36.138Z,43.10
2018-06-27T13:20:05.350Z,44.60
2018-06-27T13:22:35.598Z,43.20
2018-06-27T13:25:04.256Z,43.90
2018-06-27T13:27:32.914Z,44.40
2018-06-27T13:30:01.550Z,43.80
2018-06-27T13:32:30.879Z,41.90
2018-06-27T13:34:59.640Z,42.70
2018-06-27T13:37:28.689Z,41.20
2018-06-27T13:39:57.286Z,40.80
2018-06-27T13:42:25.884Z,41.90
2018-06-27T13:44:54.572Z,43.70
2018-06-27T13:47:23.258Z,43.20
2018-06-27T13:49:51.878Z,42.80
2018-06-27T13:52:20.502Z,43.40
2018-06-27T13:54:55.021Z,42.40
2018-06-27T13:59:52.760Z,39.40
2018-06-27T14:02:21.642Z,40.80
2018-06-27T14:04:50.639Z,40.10
2018-06-27T14:07:19.345Z,39.70
2018-06-27T14:09:47.947Z,41.20
2018-06-27T14:12:17.099Z,40.50
2018-06-27T14:14:45.710Z,40.90
2018-06-27T14:17:14.892Z,40.10
2018-06-27T14:19:43.642Z,39.50
2018-06-27T14:22:12.288Z,40.60
2018-06-27T14:24:40.860Z,39.70
2018-06-27T14:27:09.653Z,38.20
2018-06-27T14:29:38.290Z,40.10
2018-06-27T14:32:06.927Z,39.60
2018-06-27T14:34:35.526Z,38.70
2018-06-27T14:37:04.870Z,40.80
2018-06-27T14:39:34.598Z,39.20
2018-06-27T14:42:03.211Z,39.40
2018-06-27T14:44:32.268Z,38.60
2018-06-27T14:47:00.921Z,38.80
2018-06-27T14:49:30.600Z,36.80
2018-06-27T14:51:59.316Z,38.40
2018-06-27T14:54:28.085Z,37.70
2018-06-27T14:56:56.689Z,38.10
2018-06-27T14:59:25.433Z,38.40
2018-06-27T15:01:55.033Z,38.50
2018-06-27T15:04:24.340Z,39.80
2018-06-27T15:06:53.882Z,37.40
2018-06-27T15:09:23.082Z,36.40
2018-06-27T15:11:51.670Z,37.10
2018-06-27T15:14:20.339Z,37.40
2018-06-27T15:16:49.689Z,37.20
2018-06-27T15:19:18.277Z,38.00
2018-06-27T15:21:46.849Z,37.60
2018-06-27T15:24:15.552Z,37.80
2018-06-27T15:26:44.180Z,39.10
2018-06-27T15:29:12.789Z,38.40
2018-06-27T15:31:41.517Z,38.20
2018-06-27T15:34:10.261Z,37.90
2018-06-27T15:36:39.327Z,37.00
2018-06-27T15:39:09.291Z,36.40
2018-06-27T15:41:37.936Z,36.60
2018-06-27T15:44:07.189Z,37.60
2018-06-27T15:46:36.346Z,37.30
2018-06-27T15:49:06.754Z,38.80
2018-06-27T15:51:35.386Z,37.40
2018-06-27T15:54:04.074Z,37.60
2018-06-27T15:56:32.709Z,37.60
2018-06-27T15:59:02.165Z,37.10
2018-06-27T16:01:31.370Z,37.70
2018-06-27T16:04:00.229Z,37.70
2018-06-27T16:06:30.092Z,38.10
2018-06-27T16:08:58.689Z,36.90
2018-06-27T16:11:27.411Z,37.60
2018-06-27T16:13:56.497Z,37.80
2018-06-27T16:16:25.923Z,36.80
2018-06-27T16:18:55.069Z,37.50
2018-06-27T16:21:23.800Z,37.70
2018-06-27T16:23:53.229Z,37.00
2018-06-27T16:26:22.785Z,36.80
2018-06-27T16:28:51.428Z,36.80
2018-06-27T16:31:20.034Z,36.90
2018-06-27T16:33:50.338Z,36.40
2018-06-27T16:36:18.998Z,37.90
2018-06-27T16:38:47.592Z,36.60
2018-06-27T16:41:16.178Z,37.90
2018-06-27T16:43:44.781Z,38.70
2018-06-27T16:46:13.439Z,38.50
2018-06-27T16:48:42.089Z,38.60
2018-06-27T16:51:10.892Z,37.70
2018-06-27T16:53:39.479Z,37.30
2018-06-27T16:56:08.688Z,37.90
2018-06-27T16:58:37.299Z,37.80
2018-06-27T17:01:06.420Z,38.30
2018-06-27T17:06:03.379Z,37.70
2018-06-27T17:08:31.981Z,38.60
2018-06-27T17:11:00.569Z,37.50
2018-06-27T17:13:29.162Z,38.10
2018-06-27T17:15:57.761Z,38.60
2018-06-27T17:18:26.369Z,38.00
2018-06-27T17:21:12.861Z,38.60
2018-06-27T17:23:42.379Z,39.00
2018-06-27T17:26:10.976Z,38.50
2018-06-27T17:28:39.567Z,38.80
2018-06-27T17:31:08.499Z,39.00
2018-06-27T17:33:37.106Z,39.50
2018-06-27T17:36:05.771Z,39.50
2018-06-27T17:38:34.562Z,38.20
2018-06-27T17:41:03.177Z,39.30
2018-06-27T17:43:31.786Z,40.50
2018-06-27T17:46:00.394Z,40.80
2018-06-27T17:48:29.742Z,40.20
2018-06-27T17:50:58.435Z,40.80
2018-06-27T17:55:55.806Z,40.70
2018-06-27T18:00:52.825Z,41.10
2018-06-27T18:03:21.733Z,41.80
2018-06-27T18:05:51.090Z,42.00
2018-06-27T18:08:20.714Z,42.20
2018-06-27T18:10:49.609Z,43.20
2018-06-27T18:13:18.789Z,43.50
2018-06-27T18:15:48.129Z,43.50
2018-06-27T18:18:16.854Z,42.40
2018-06-27T18:20:46.118Z,43.30
2018-06-27T18:23:14.750Z,43.00
2018-06-27T18:25:43.371Z,43.00
2018-06-27T18:28:12.058Z,43.00
2018-06-27T18:30:40.746Z,43.60
2018-06-27T18:33:09.387Z,43.60
2018-06-27T18:35:38.493Z,44.40
2018-06-27T18:38:07.890Z,44.10
2018-06-27T18:40:36.714Z,44.30
2018-06-27T18:43:05.384Z,44.70
2018-06-27T18:45:34.278Z,45.20
2018-06-27T18:48:03.633Z,45.50
2018-06-27T18:50:32.268Z,45.60
2018-06-27T18:53:00.882Z,45.90
2018-06-27T18:55:30.500Z,45.60
2018-06-27T18:57:59.463Z,46.30
2018-06-27T19:00:28.214Z,46.10
2018-06-27T19:02:57.189Z,46.10
2018-06-27T19:05:25.898Z,47.00
2018-06-27T19:07:54.530Z,47.10
2018-06-27T19:10:23.427Z,47.50
2018-06-27T19:12:52.845Z,48.20
2018-06-27T19:15:22.094Z,48.60
2018-06-27T19:17:52.771Z,48.30
2018-06-27T19:20:21.441Z,48.90
2018-06-27T19:22:50.085Z,49.20
2018-06-27T19:25:20.244Z,50.30
2018-06-27T19:27:49.002Z,50.90
2018-06-27T19:30:18.285Z,51.10
2018-06-27T19:32:47.028Z,51.50
2018-06-27T19:35:16.818Z,51.90
2018-06-27T19:40:14.300Z,52.90
2018-06-27T19:45:12.003Z,53.80
2018-06-27T19:47:40.647Z,54.10
2018-06-27T19:50:09.931Z,54.50
2018-06-27T19:52:38.626Z,54.80
2018-06-27T19:55:07.438Z,55.00
2018-06-27T19:57:36.066Z,55.40
2018-06-27T20:00:05.669Z,55.80
2018-06-27T20:02:34.268Z,56.00
2018-06-27T20:05:03.092Z,56.20
2018-06-27T20:07:31.787Z,56.60
2018-06-27T20:10:00.377Z,56.90
2018-06-27T20:12:29.852Z,56.80
2018-06-27T20:14:58.539Z,57.40
2018-06-27T20:17:27.187Z,57.70
2018-06-27T20:22:24.389Z,58.10
2018-06-27T20:24:52.957Z,58.30
2018-06-27T20:29:50.013Z,59.10
2018-06-27T20:32:18.732Z,58.90
2018-06-27T20:34:47.930Z,59.00
2018-06-27T20:37:16.851Z,59.30
2018-06-27T20:39:45.486Z,59.50
2018-06-27T20:42:14.141Z,59.60
2018-06-27T20:44:42.962Z,59.70
2018-06-27T20:47:11.667Z,59.80
2018-06-27T20:49:40.238Z,59.60
2018-06-27T20:52:08.857Z,59.90
2018-06-27T20:54:37.510Z,60.10
2018-06-27T20:57:06.258Z,60.80
2018-06-27T20:59:34.879Z,60.60
2018-06-27T21:02:04.331Z,60.80
2018-06-27T21:07:01.183Z,61.50
2018-06-27T21:09:30.420Z,61.80
2018-06-27T21:12:01.018Z,62.00
2018-06-27T21:14:29.624Z,62.30
2018-06-27T21:19:26.519Z,63.00
2018-06-27T21:21:55.142Z,63.20
2018-06-27T21:24:23.746Z,63.40
2018-06-27T21:26:52.662Z,63.60
2018-06-27T21:31:49.564Z,64.10
2018-06-27T21:34:18.866Z,64.30
2018-06-27T21:36:47.624Z,64.40
2018-06-27T21:41:44.478Z,64.80
2018-06-27T21:44:13.168Z,65.00
2018-06-27T21:46:41.764Z,65.80
2018-06-27T21:49:10.497Z,66.00
2018-06-27T21:51:39.266Z,67.10
2018-06-27T21:54:08.807Z,66.60
2018-06-27T21:56:37.460Z,66.60
2018-06-27T21:59:06.135Z,66.80
2018-06-27T22:01:35.383Z,66.80
2018-06-27T22:04:04.026Z,67.10
2018-06-27T22:06:32.619Z,67.30
2018-06-27T22:09:01.457Z,67.60
2018-06-27T22:11:30.268Z,67.70
2018-06-27T22:13:59.170Z,67.80
2018-06-27T22:16:27.814Z,67.90
2018-06-27T22:18:56.393Z,68.20
2018-06-27T22:21:25.037Z,68.50
2018-06-27T22:23:54.602Z,68.70
2018-06-27T22:26:24.059Z,68.80
2018-06-27T22:28:52.703Z,69.00
2018-06-27T22:31:21.360Z,69.30
2018-06-27T22:33:49.995Z,69.30
2018-06-27T22:36:18.694Z,69.40
2018-06-27T22:38:47.295Z,69.50
2018-06-27T22:41:15.968Z,69.80
2018-06-27T22:43:44.580Z,69.90
2018-06-27T22:46:13.167Z,70.10
2018-06-27T22:48:41.805Z,70.20
2018-06-27T22:51:10.424Z,71.20
2018-06-27T22:53:39.072Z,70.60
2018-06-27T22:56:08.269Z,70.70
2018-06-27T22:58:36.900Z,70.90
2018-06-27T23:01:05.557Z,71.00
2018-06-27T23:03:34.120Z,71.20
2018-06-27T23:06:02.721Z,71.30
2018-06-27T23:08:31.324Z,71.70
2018-06-27T23:10:59.920Z,71.70
2018-06-27T23:13:28.546Z,71.80
2018-06-27T23:15:57.556Z,71.80
2018-06-27T23:18:26.181Z,72.20
2018-06-27T23:20:54.758Z,72.20
2018-06-27T23:23:23.946Z,72.50
2018-06-27T23:25:52.566Z,72.80
2018-06-27T23:28:21.140Z,73.50
2018-06-27T23:30:49.792Z,73.70
2018-06-27T23:33:18.929Z,73.80
2018-06-27T23:35:47.584Z,73.80
2018-06-27T23:38:16.221Z,74.10
2018-06-27T23:40:44.923Z,74.50
2018-06-27T23:43:13.524Z,74.70
2018-06-27T23:45:42.130Z,74.70
2018-06-27T23:48:10.712Z,74.90
2018-06-27T23:50:39.319Z,75.00
2018-06-27T23:53:07.959Z,75.10
2018-06-27T23:55:36.702Z,75.40
2018-06-27T23:58:05.973Z,75.40
